Time;durP1;ratioP1;P1;durP2;ratioP2;P2;SDS_P1;SDS_P2;PMS_P1;PMS_P2;Temp;Humidity;BMP_temperature;BMP_pressure;BME280_temperature;BME280_humidity;BME280_pressure;Samples;Min_cycle;Max_cycle;Signal;HPM_P1;HPM_P2
2023/05/04 00:01:36;;;;;;;;;;;;;;;8.93;100.00;-18268.56;5003389;28;20644;-78
2023/05/04 00:04:02;;;;;;;;;;;;;;;8.91;100.00;-18268.00;5009227;28;19913;-79
2023/05/04 00:06:27;;;;;;;;;;;;;;;8.81;100.00;-18265.41;5003970;28;20285;-79
2023/05/04 00:08:52;;;;;;;;;;;;;;;8.86;100.00;-18266.50;5001966;28;19924;-78
2023/05/04 00:11:18;;;;;;;;;;;;;;;8.73;100.00;-18263.19;5003066;28;20000;-78
2023/05/04 00:13:43;;;;;;;;;;;;;;;8.62;100.00;-18260.16;5023152;28;19932;-78
2023/05/04 00:16:08;;;;;;;;;;;;;;;8.60;100.00;-18259.63;5009987;28;20488;-79
2023/05/04 00:18:34;;;;;;;;;;;;;;;8.51;100.00;-18257.13;5002842;28;19924;-79
2023/05/04 00:20:59;;;;;;;;;;;;;;;8.63;100.00;-18260.44;5009963;28;19999;-78
2023/05/04 00:23:24;;;;;;;;;;;;;;;8.63;100.00;-18260.31;5005788;28;19913;-78
2023/05/04 00:25:50;;;;;;;;;;;;;;;8.68;100.00;-18261.81;5002088;28;19920;-79
2023/05/04 00:28:15;;;;;;;;;;;;;;;8.53;100.00;-18257.81;5005262;28;20412;-79
2023/05/04 00:30:40;;;;;;;;;;;;;;;8.59;100.00;-18259.34;5006629;28;20376;-79
2023/05/04 00:33:06;;;;;;;;;;;;;;;8.30;100.00;-18251.63;4998965;28;19921;-79
2023/05/04 00:35:31;;;;;;;;;;;;;;;8.27;100.00;-18250.78;5004179;28;19914;-79
2023/05/04 00:37:56;;;;;;;;;;;;;;;8.32;100.00;-18252.03;5004470;28;19921;-78
2023/05/04 00:40:22;;;;;;;;;;;;;;;8.25;100.00;-18250.25;5005482;28;20361;-79
2023/05/04 00:42:47;;;;;;;;;;;;;;;8.22;100.00;-18249.28;5005837;28;20318;-79
2023/05/04 00:45:13;;;;;;;;;;;;;;;8.19;100.00;-18248.59;5002526;28;19921;-79
2023/05/04 00:47:38;;;;;;;;;;;;;;;8.34;100.00;-18252.72;4998732;28;19914;-79
2023/05/04 00:50:04;;;;;;;;;;;;;;;8.34;100.00;-18252.59;4995234;28;19921;-78
2023/05/04 00:52:29;;;;;;;;;;;;;;;8.14;100.00;-18247.34;5001403;28;20013;-79
2023/05/04 00:54:54;;;;;;;;;;;;;;;8.13;100.00;-18246.94;4999228;28;19918;-79
2023/05/04 00:57:20;;;;;;;;;;;;;;;8.15;100.00;-18247.50;5002947;28;22205;-79
2023/05/04 00:59:46;;;;;;;;;;;;;;;8.25;100.00;-18250.25;4997303;28;20436;-79
2023/05/04 01:02:11;;;;;;;;;;;;;;;8.06;100.00;-18245.16;5006397;28;19913;-79
2023/05/04 01:04:37;;;;;;;;;;;;;;;8.01;100.00;-18243.63;5006735;28;19995;-79
2023/05/04 01:07:02;;;;;;;;;;;;;;;7.99;100.00;-18243.22;4998737;28;19924;-79
2023/05/04 01:09:27;;;;;;;;;;;;;;;8.00;100.00;-18243.38;5005818;28;20012;-79
2023/05/04 01:11:57;;;;;;;;;;;;;;;8.03;100.00;-18244.19;5000311;28;19953;-79
2023/05/04 01:14:23;;;;;;;;;;;;;;;8.15;100.00;-18247.50;5008859;28;20361;-78
2023/05/04 01:16:52;;;;;;;;;;;;;;;8.01;100.00;-18243.63;5005186;28;19922;-78
2023/05/04 01:19:17;;;;;;;;;;;;;;;8.13;100.00;-18247.09;5007499;28;19913;-79
2023/05/04 01:21:42;;;;;;;;;;;;;;;8.26;100.00;-18250.53;5002327;28;19968;-79
2023/05/04 01:24:07;;;;;;;;;;;;;;;8.00;100.00;-18243.50;5002056;28;19913;-79
2023/05/04 01:26:37;;;;;;;;;;;;;;;7.93;100.00;-18241.44;5004239;28;19913;-78
2023/05/04 01:29:16;;;;;;;;;;;;;;;7.95;100.00;-18242.00;4999939;28;19914;-79
2023/05/04 01:31:42;;;;;;;;;;;;;;;7.90;100.00;-18240.88;5003527;28;19921;-78
2023/05/04 01:34:07;;;;;;;;;;;;;;;8.04;100.00;-18244.47;5001236;28;20398;-78
2023/05/04 01:36:32;;;;;;;;;;;;;;;7.78;100.00;-18237.44;5002143;28;19928;-79
2023/05/04 01:38:58;;;;;;;;;;;;;;;7.79;100.00;-18237.72;5001203;28;19919;-78
2023/05/04 01:41:24;;;;;;;;;;;;;;;7.73;100.00;-18236.19;5001609;28;19923;-79
2023/05/04 01:43:49;;;;;;;;;;;;;;;7.71;100.00;-18235.50;5002712;28;19914;-79
2023/05/04 01:46:14;;;;;;;;;;;;;;;7.94;100.00;-18241.72;5006662;28;20441;-79
2023/05/04 01:48:40;;;;;;;;;;;;;;;7.78;100.00;-18237.59;5003035;28;19913;-78
2023/05/04 01:51:05;;;;;;;;;;;;;;;7.65;100.00;-18234.13;5006037;28;20004;-79
2023/05/04 01:53:30;;;;;;;;;;;;;;;7.78;100.00;-18237.59;5001221;28;20000;-78
2023/05/04 01:55:55;;;;;;;;;;;;;;;7.80;100.00;-18238.13;5001639;28;20320;-79
2023/05/04 01:58:20;;;;;;;;;;;;;;;7.70;100.00;-18235.38;5006399;28;19925;-79
2023/05/04 02:00:46;;;;;;;;;;;;;;;7.73;100.00;-18236.19;4996229;28;19921;-78
2023/05/04 02:03:11;;;;;;;;;;;;;;;7.69;100.00;-18235.25;5004224;28;19913;-79
2023/05/04 02:05:36;;;;;;;;;;;;;;;7.40;100.00;-18227.25;5003176;28;20306;-79
2023/05/04 02:08:02;;;;;;;;;;;;;;;7.44;100.00;-18228.34;4997930;28;19921;-78
2023/05/04 02:10:27;;;;;;;;;;;;;;;7.36;100.00;-18226.28;4995544;28;20517;-79
2023/05/04 02:12:52;;;;;;;;;;;;;;;7.50;100.00;-18229.88;5004363;28;19918;-79
2023/05/04 02:15:18;;;;;;;;;;;;;;;7.51;100.00;-18230.13;5005272;28;19917;-79
2023/05/04 02:17:43;;;;;;;;;;;;;;;7.53;100.00;-18230.69;5006595;28;19928;-80
2023/05/04 02:20:09;;;;;;;;;;;;;;;7.75;100.00;-18236.63;5021898;28;20011;-79
2023/05/04 02:22:34;;;;;;;;;;;;;;;7.50;100.00;-18230.00;5002540;28;20377;-80
2023/05/04 02:25:00;;;;;;;;;;;;;;;7.41;100.00;-18227.66;5007193;28;19914;-80
2023/05/04 02:27:25;;;;;;;;;;;;;;;7.44;100.00;-18228.50;5001139;28;19921;-78
2023/05/04 02:29:50;;;;;;;;;;;;;;;7.23;100.00;-18222.84;5006772;28;19917;-79
2023/05/04 02:32:15;;;;;;;;;;;;;;;7.32;100.00;-18225.19;4998781;28;19913;-79
2023/05/04 02:34:41;;;;;;;;;;;;;;;7.26;100.00;-18223.53;5004941;28;19961;-80
2023/05/04 02:37:06;;;;;;;;;;;;;;;7.18;100.00;-18221.31;5002213;28;19976;-79
2023/05/04 02:39:31;;;;;;;;;;;;;;;7.27;100.00;-18223.81;5004511;28;19956;-79
2023/05/04 02:41:56;;;;;;;;;;;;;;;7.33;100.00;-18225.47;5005654;28;19957;-79
2023/05/04 02:44:22;;;;;;;;;;;;;;;7.40;100.00;-18227.38;5018264;28;19921;-78
2023/05/04 02:46:47;;;;;;;;;;;;;;;7.35;100.00;-18225.88;5009943;28;19925;-79
2023/05/04 02:49:12;;;;;;;;;;;;;;;7.37;100.00;-18226.44;5003282;28;19932;-79
2023/05/04 02:51:37;;;;;;;;;;;;;;;7.40;100.00;-18227.38;5005255;28;19917;-79
2023/05/04 02:54:02;;;;;;;;;;;;;;;7.41;100.00;-18227.66;5005124;28;19921;-79
2023/05/04 02:56:28;;;;;;;;;;;;;;;7.40;100.00;-18227.25;5006301;28;19914;-78
2023/05/04 02:58:53;;;;;;;;;;;;;;;7.40;100.00;-18227.38;5002884;28;19918;-79
2023/05/04 03:01:18;;;;;;;;;;;;;;;7.26;100.00;-18223.53;5011764;28;19997;-79
2023/05/04 03:03:43;;;;;;;;;;;;;;;7.14;100.00;-18220.22;5004619;28;19914;-79
2023/05/04 03:06:09;;;;;;;;;;;;;;;7.33;100.00;-18225.47;5003247;28;19917;-78
2023/05/04 03:08:34;;;;;;;;;;;;;;;7.27;100.00;-18223.66;5003948;28;19939;-79
2023/05/04 03:11:00;;;;;;;;;;;;;;;7.31;100.00;-18224.75;5006009;28;19917;-78
2023/05/04 03:13:25;;;;;;;;;;;;;;;7.18;100.00;-18221.47;5007431;28;19918;-78
2023/05/04 03:15:50;;;;;;;;;;;;;;;7.14;100.00;-18220.22;5006012;28;19964;-79
2023/05/04 03:18:16;;;;;;;;;;;;;;;7.15;100.00;-18220.63;5021494;28;19924;-78
2023/05/04 03:20:41;;;;;;;;;;;;;;;7.09;100.00;-18218.84;5003723;28;19917;-78
2023/05/04 03:23:06;;;;;;;;;;;;;;;7.08;100.00;-18218.72;5006717;28;19913;-79
2023/05/04 03:25:31;;;;;;;;;;;;;;;7.06;100.00;-18218.03;5001235;28;19971;-79
2023/05/04 03:27:56;;;;;;;;;;;;;;;7.03;100.00;-18217.31;5009106;28;19941;-79
2023/05/04 03:30:22;;;;;;;;;;;;;;;6.97;100.00;-18215.81;5007505;28;19925;-79
2023/05/04 03:32:47;;;;;;;;;;;;;;;6.89;100.00;-18213.59;5004994;28;19921;-78
2023/05/04 03:35:13;;;;;;;;;;;;;;;6.93;100.00;-18214.56;5005909;28;19914;-79
2023/05/04 03:37:38;;;;;;;;;;;;;;;6.97;100.00;-18215.69;5007455;28;19932;-79
2023/05/04 03:40:03;;;;;;;;;;;;;;;6.90;100.00;-18213.75;5008124;28;19917;-79
2023/05/04 03:42:29;;;;;;;;;;;;;;;6.94;100.00;-18215.00;5006487;28;19927;-78
2023/05/04 03:44:54;;;;;;;;;;;;;;;6.97;100.00;-18215.69;5006905;28;19929;-79
2023/05/04 03:47:19;;;;;;;;;;;;;;;6.94;100.00;-18214.84;5003260;28;19920;-79
2023/05/04 03:49:44;;;;;;;;;;;;;;;6.87;100.00;-18213.06;5009528;28;19913;-79
2023/05/04 03:52:10;;;;;;;;;;;;;;;6.78;100.00;-18210.72;5009490;28;19971;-78
2023/05/04 03:54:35;;;;;;;;;;;;;;;6.78;100.00;-18210.56;5004545;28;20012;-78
2023/05/04 03:57:03;;;;;;;;;;;;;;;6.76;100.00;-18210.03;5000915;28;19921;-79
2023/05/04 03:59:28;;;;;;;;;;;;;;;6.76;100.00;-18210.16;5004466;28;19913;-79
2023/05/04 04:01:53;;;;;;;;;;;;;;;6.81;100.00;-18211.41;5007769;28;20059;-78
2023/05/04 04:04:19;;;;;;;;;;;;;;;6.81;100.00;-18211.41;5004091;28;19921;-79
2023/05/04 04:06:44;;;;;;;;;;;;;;;6.80;100.00;-18211.00;5005085;28;19929;-79
2023/05/04 04:09:09;;;;;;;;;;;;;;;6.78;100.00;-18210.56;5001068;28;19996;-80
2023/05/04 04:11:35;;;;;;;;;;;;;;;6.79;100.00;-18210.84;5002214;28;20048;-80
2023/05/04 04:14:00;;;;;;;;;;;;;;;6.80;100.00;-18211.13;5009906;28;20023;-80
2023/05/04 04:16:25;;;;;;;;;;;;;;;6.76;100.00;-18210.03;5008122;28;19925;-80
2023/05/04 04:18:50;;;;;;;;;;;;;;;6.77;100.00;-18210.44;5003333;28;20409;-79
2023/05/04 04:21:16;;;;;;;;;;;;;;;6.79;100.00;-18210.84;5005382;28;20480;-79
2023/05/04 04:23:41;;;;;;;;;;;;;;;6.74;100.00;-18209.47;5004942;28;19918;-80
2023/05/04 04:26:06;;;;;;;;;;;;;;;6.72;100.00;-18209.06;5003157;28;19932;-79
2023/05/04 04:28:32;;;;;;;;;;;;;;;6.66;100.00;-18207.28;5002473;28;19913;-80
2023/05/04 04:30:58;;;;;;;;;;;;;;;6.82;100.00;-18211.53;5005004;28;19917;-80
2023/05/04 04:33:23;;;;;;;;;;;;;;;6.74;100.00;-18209.59;5010187;28;19925;-80
2023/05/04 04:35:48;;;;;;;;;;;;;;;6.66;100.00;-18207.41;5001465;28;20320;-80
2023/05/04 04:38:14;;;;;;;;;;;;;;;6.67;100.00;-18207.53;5020876;28;19925;-81
2023/05/04 04:40:39;;;;;;;;;;;;;;;6.67;100.00;-18207.69;5006093;28;20283;-80
2023/05/04 04:43:04;;;;;;;;;;;;;;;6.76;100.00;-18210.03;5003371;28;19913;-80
2023/05/04 04:45:30;;;;;;;;;;;;;;;6.83;100.00;-18211.81;5003569;28;20922;-80
2023/05/04 04:47:55;;;;;;;;;;;;;;;6.75;100.00;-18209.75;5003695;28;20034;-81
2023/05/04 04:50:20;;;;;;;;;;;;;;;6.66;100.00;-18207.28;5004836;28;20016;-80
2023/05/04 04:52:45;;;;;;;;;;;;;;;6.63;100.00;-18206.44;5007570;28;19987;-79
2023/05/04 04:55:11;;;;;;;;;;;;;;;6.62;100.00;-18206.31;5000488;28;20388;-81
2023/05/04 04:57:36;;;;;;;;;;;;;;;6.72;100.00;-18208.91;5002100;28;19917;-81
2023/05/04 05:00:04;;;;;;;;;;;;;;;6.84;100.00;-18212.09;4999456;28;19918;-81
2023/05/04 05:02:29;;;;;;;;;;;;;;;6.84;100.00;-18212.09;5005523;28;19917;-81
2023/05/04 05:04:55;;;;;;;;;;;;;;;6.83;100.00;-18211.81;5001243;28;19920;-81
2023/05/04 05:07:20;;;;;;;;;;;;;;;6.88;100.00;-18213.34;5007409;28;19914;-81
2023/05/04 05:09:45;;;;;;;;;;;;;;;7.04;100.00;-18217.59;5007055;28;19921;-81
2023/05/04 05:12:11;;;;;;;;;;;;;;;7.08;100.00;-18218.56;5002810;28;19925;-80
2023/05/04 05:14:36;;;;;;;;;;;;;;;7.10;100.00;-18219.25;5001790;28;19921;-80
2023/05/04 05:17:04;;;;;;;;;;;;;;;7.23;100.00;-18222.69;5004270;28;19925;-81
2023/05/04 05:19:35;;;;;;;;;;;;;;;7.34;100.00;-18225.72;5000245;28;19925;-81
2023/05/04 05:22:00;;;;;;;;;;;;;;;7.46;100.00;-18228.91;5004489;28;19918;-81
2023/05/04 05:24:26;;;;;;;;;;;;;;;7.62;100.00;-18233.31;5002709;28;19983;-81
2023/05/04 05:26:52;;;;;;;;;;;;;;;7.76;100.00;-18237.03;5003305;28;19917;-81
2023/05/04 05:29:17;;;;;;;;;;;;;;;7.83;100.00;-18238.97;5006947;28;19979;-81
2023/05/04 05:31:42;;;;;;;;;;;;;;;7.97;100.00;-18242.69;5000961;28;20372;-81
2023/05/04 05:34:07;;;;;;;;;;;;;;;7.67;100.00;-18234.69;5003500;28;20033;-80
2023/05/04 05:36:33;;;;;;;;;;;;;;;7.83;100.00;-18238.81;4998001;28;19914;-80
2023/05/04 05:38:58;;;;;;;;;;;;;;;7.85;100.00;-18239.50;5003277;28;19913;-82
2023/05/04 05:41:23;;;;;;;;;;;;;;;7.93;100.00;-18241.44;4996943;28;19921;-82
2023/05/04 05:43:49;;;;;;;;;;;;;;;8.27;100.00;-18250.78;5005403;28;19921;-81
2023/05/04 05:46:14;;;;;;;;;;;;;;;8.33;100.00;-18252.44;5001808;28;19921;-80
2023/05/04 05:48:40;;;;;;;;;;;;;;;8.43;100.00;-18255.06;5003663;28;20448;-80
2023/05/04 05:51:05;;;;;;;;;;;;;;;8.53;100.00;-18257.81;5006250;28;20436;-80
2023/05/04 05:53:30;;;;;;;;;;;;;;;8.62;100.00;-18260.16;5008447;28;19921;-80
2023/05/04 05:55:55;;;;;;;;;;;;;;;8.81;100.00;-18265.41;5008929;28;19920;-81
2023/05/04 05:58:21;;;;;;;;;;;;;;;8.95;100.00;-18268.97;5003315;28;19959;-81
2023/05/04 06:00:46;;;;;;;;;;;;;;;9.01;100.00;-18270.63;5005998;28;20427;-81
2023/05/04 06:03:12;;;;;;;;;;;;;;;9.11;100.00;-18273.22;5008508;28;20439;-81
2023/05/04 06:05:37;;;;;;;;;;;;;;;9.20;100.00;-18275.84;5003441;28;20012;-81
2023/05/04 06:08:02;;;;;;;;;;;;;;;9.36;100.00;-18280.13;5006612;28;19953;-80
2023/05/04 06:10:28;;;;;;;;;;;;;;;9.39;100.00;-18280.94;5007583;28;20562;-81
2023/05/04 06:12:53;;;;;;;;;;;;;;;9.33;100.00;-18279.16;5003534;28;19921;-81
2023/05/04 06:15:18;;;;;;;;;;;;;;;9.42;100.00;-18281.63;5012235;28;19917;-80
2023/05/04 06:17:44;;;;;;;;;;;;;;;9.63;100.00;-18287.41;5005566;28;19917;-81
2023/05/04 06:20:09;;;;;;;;;;;;;;;9.50;100.00;-18283.81;5001268;28;20020;-81
2023/05/04 06:22:35;;;;;;;;;;;;;;;9.60;100.00;-18286.56;5004991;28;20293;-80
2023/05/04 06:25:00;;;;;;;;;;;;;;;9.65;100.00;-18287.81;5008497;28;19917;-81
2023/05/04 06:27:27;;;;;;;;;;;;;;;9.79;100.00;-18291.66;4999081;28;19917;-81
2023/05/04 06:29:52;;;;;;;;;;;;;;;9.79;100.00;-18291.53;5004586;28;19918;-81
2023/05/04 06:32:18;;;;;;;;;;;;;;;9.98;100.00;-18296.63;5005151;28;20312;-81
2023/05/04 06:34:43;;;;;;;;;;;;;;;10.07;100.00;-18299.22;5014167;28;20003;-81
2023/05/04 06:37:08;;;;;;;;;;;;;;;10.20;100.00;-18302.53;5002449;28;19920;-81
2023/05/04 06:39:33;;;;;;;;;;;;;;;10.24;100.00;-18303.75;5004975;28;19913;-81
2023/05/04 06:41:59;;;;;;;;;;;;;;;10.29;100.00;-18305.13;5023260;28;19913;-81
2023/05/04 06:44:24;;;;;;;;;;;;;;;10.33;100.00;-18306.09;5010598;28;20027;-81
2023/05/04 06:46:50;;;;;;;;;;;;;;;10.53;100.00;-18311.59;5008237;28;19925;-81
2023/05/04 06:49:16;;;;;;;;;;;;;;;10.61;100.00;-18313.78;5004398;28;19921;-81
2023/05/04 06:51:42;;;;;;;;;;;;;;;10.79;100.00;-18318.47;5005918;28;19921;-81
2023/05/04 06:54:07;;;;;;;;;;;;;;;10.90;100.00;-18321.34;5006127;28;19964;-81
2023/05/04 06:56:33;;;;;;;;;;;;;;;10.81;100.00;-18319.00;5007224;28;20273;-81
2023/05/04 06:58:58;;;;;;;;;;;;;;;11.03;100.00;-18325.06;5005217;28;20363;-81
2023/05/04 07:01:23;;;;;;;;;;;;;;;11.22;100.00;-18330.00;5001734;28;19968;-81
2023/05/04 07:03:49;;;;;;;;;;;;;;;11.30;100.00;-18332.34;5005970;28;20508;-81
2023/05/04 07:06:14;;;;;;;;;;;;;;;11.39;100.00;-18334.66;5005678;28;19917;-81
2023/05/04 07:08:39;;;;;;;;;;;;;;;11.58;100.00;-18339.63;5003226;28;19939;-80
2023/05/04 07:11:05;;;;;;;;;;;;;;;11.78;100.00;-18345.09;5009030;28;20000;-80
2023/05/04 07:13:31;;;;;;;;;;;;;;;11.70;100.00;-18342.91;5010359;28;19925;-80
2023/05/04 07:15:56;;;;;;;;;;;;;;;11.86;100.00;-18347.16;5009301;28;19929;-80
2023/05/04 07:18:21;;;;;;;;;;;;;;;11.81;100.00;-18345.94;5008607;28;19999;-80
2023/05/04 07:20:47;;;;;;;;;;;;;;;11.99;100.00;-18350.59;5010328;28;19921;-81
2023/05/04 07:23:12;;;;;;;;;;;;;;;11.94;100.00;-18349.38;5007268;28;19956;-80
2023/05/04 07:25:37;;;;;;;;;;;;;;;12.17;100.00;-18355.53;5005368;28;20005;-80
2023/05/04 07:28:03;;;;;;;;;;;;;;;12.32;100.00;-18359.66;5004866;28;19949;-81
2023/05/04 07:30:28;;;;;;;;;;;;;;;12.53;100.00;-18365.13;5005371;28;20456;-81
2023/05/04 07:32:53;;;;;;;;;;;;;;;12.54;100.00;-18365.56;5003638;28;19921;-80
2023/05/04 07:35:18;;;;;;;;;;;;;;;12.59;100.00;-18366.78;5002788;28;19921;-81
2023/05/04 07:37:45;;;;;;;;;;;;;;;12.66;100.00;-18368.72;5004148;28;19917;-80
2023/05/04 07:40:12;;;;;;;;;;;;;;;12.81;100.00;-18372.81;5008985;28;20392;-80
2023/05/04 07:42:37;;;;;;;;;;;;;;;12.94;100.00;-18376.09;5011177;28;20012;-80
2023/05/04 07:45:03;;;;;;;;;;;;;;;13.00;100.00;-18377.88;5012268;28;20547;-80
2023/05/04 07:47:28;;;;;;;;;;;;;;;13.14;100.00;-18381.59;5016244;28;19913;-80
2023/05/04 07:49:53;;;;;;;;;;;;;;;13.17;100.00;-18382.41;5010002;28;19928;-80
2023/05/04 07:52:18;;;;;;;;;;;;;;;13.26;100.00;-18384.88;5013783;28;19921;-80
2023/05/04 07:54:44;;;;;;;;;;;;;;;13.36;100.00;-18387.34;5019228;28;19918;-80
2023/05/04 07:57:09;;;;;;;;;;;;;;;13.37;100.00;-18387.63;5009849;28;20000;-80
2023/05/04 07:59:34;;;;;;;;;;;;;;;13.72;100.00;-18397.22;5013047;28;19948;-80
2023/05/04 08:01:59;;;;;;;;;;;;;;;13.68;100.00;-18396.00;5000570;28;20647;-80
2023/05/04 08:04:25;;;;;;;;;;;;;;;13.79;100.00;-18398.88;5004717;28;20012;-80
2023/05/04 08:06:50;;;;;;;;;;;;;;;13.83;100.00;-18399.97;5004023;28;19913;-80
2023/05/04 08:09:15;;;;;;;;;;;;;;;13.89;100.00;-18401.59;5000424;28;20004;-80
2023/05/04 08:11:41;;;;;;;;;;;;;;;13.97;100.00;-18403.94;5011045;28;20347;-80
2023/05/04 08:14:07;;;;;;;;;;;;;;;13.93;100.00;-18402.84;4996708;28;19917;-80
2023/05/04 08:16:32;;;;;;;;;;;;;;;14.14;100.00;-18408.31;5010316;28;19913;-80
2023/05/04 08:18:58;;;;;;;;;;;;;;;14.35;100.00;-18413.94;5002713;28;20000;-80
2023/05/04 08:21:23;;;;;;;;;;;;;;;14.57;100.00;-18419.81;4997483;28;19913;-80
2023/05/04 08:23:49;;;;;;;;;;;;;;;14.57;100.00;-18419.97;5011371;28;19921;-80
2023/05/04 08:26:14;;;;;;;;;;;;;;;14.73;100.00;-18424.06;5009129;28;19945;-80
2023/05/04 08:28:40;;;;;;;;;;;;;;;14.71;100.00;-18423.50;5005279;28;19913;-80
2023/05/04 08:31:05;;;;;;;;;;;;;;;14.76;100.00;-18424.88;5006711;28;20436;-81
2023/05/04 08:33:31;;;;;;;;;;;;;;;14.92;100.00;-18429.25;5008250;28;19925;-80
2023/05/04 08:35:56;;;;;;;;;;;;;;;15.13;100.00;-18434.88;5005809;28;19968;-80
2023/05/04 08:38:21;;;;;;;;;;;;;;;15.31;100.00;-18439.78;5005232;28;20399;-81
2023/05/04 08:40:46;;;;;;;;;;;;;;;15.41;100.00;-18442.41;5012181;28;20056;-81
2023/05/04 08:43:12;;;;;;;;;;;;;;;15.38;100.00;-18441.44;5003056;28;19975;-80
2023/05/04 08:45:41;;;;;;;;;;;;;;;15.50;100.00;-18444.84;5007583;28;19956;-81
2023/05/04 08:48:07;;;;;;;;;;;;;;;15.70;100.00;-18450.06;5001595;28;19917;-81
2023/05/04 08:50:32;;;;;;;;;;;;;;;15.68;100.00;-18449.50;5008229;28;20012;-80
2023/05/04 08:53:01;;;;;;;;;;;;;;;16.04;100.00;-18459.09;5017543;28;20488;-81
2023/05/04 08:55:28;;;;;;;;;;;;;;;16.17;100.00;-18462.78;5008992;28;19914;-81
2023/05/04 08:57:53;;;;;;;;;;;;;;;16.20;100.00;-18463.47;5005621;28;19917;-81
2023/05/04 09:00:19;;;;;;;;;;;;;;;16.42;100.00;-18469.34;4998711;28;19917;-81
2023/05/04 09:02:44;;;;;;;;;;;;;;;16.63;100.00;-18475.06;5006234;28;19924;-81
2023/05/04 09:05:10;;;;;;;;;;;;;;;16.87;100.00;-18481.34;5000995;28;19914;-81
2023/05/04 09:07:35;;;;;;;;;;;;;;;17.03;100.00;-18485.72;5007440;28;19913;-80
2023/05/04 09:10:02;;;;;;;;;;;;;;;16.96;100.00;-18483.69;5006703;28;19924;-81
2023/05/04 09:12:27;;;;;;;;;;;;;;;17.24;100.00;-18491.31;5006589;28;20583;-81
2023/05/04 09:14:52;;;;;;;;;;;;;;;17.46;98.81;-18497.06;5006974;28;19924;-82
2023/05/04 09:17:24;;;;;;;;;;;;;;;17.43;96.73;-18496.25;5002355;28;19925;-81
2023/05/04 09:20:02;;;;;;;;;;;;;;;17.52;96.32;-18498.69;5005669;28;19948;-81
2023/05/04 09:22:28;;;;;;;;;;;;;;;17.61;100.00;-18501.16;5017952;28;19952;-81
2023/05/04 09:24:53;;;;;;;;;;;;;;;17.77;98.49;-18505.53;5015611;28;19925;-81
2023/05/04 09:27:19;;;;;;;;;;;;;;;17.94;95.12;-18509.88;5021278;28;20056;-82
2023/05/04 09:29:53;;;;;;;;;;;;;;;17.90;95.19;-18508.81;5017031;28;19913;-81
2023/05/04 09:32:19;;;;;;;;;;;;;;;18.06;97.66;-18513.16;5017348;28;19963;-81
2023/05/04 09:34:48;;;;;;;;;;;;;;;18.07;92.70;-18513.44;5023422;28;19952;-81
2023/05/04 09:37:14;;;;;;;;;;;;;;;18.12;92.55;-18514.81;5021625;28;20007;-81
2023/05/04 09:39:48;;;;;;;;;;;;;;;18.23;89.33;-18517.66;5015217;28;20600;-81
2023/05/04 09:42:17;;;;;;;;;;;;;;;18.26;90.79;-18518.63;5015930;28;19955;-82
2023/05/04 09:44:42;;;;;;;;;;;;;;;18.43;93.88;-18522.97;5020166;28;20644;-81
2023/05/04 09:47:08;;;;;;;;;;;;;;;18.56;91.60;-18526.38;5006525;28;19914;-81
2023/05/04 09:49:37;;;;;;;;;;;;;;;18.61;92.18;-18527.88;5002002;28;19953;-81
2023/05/04 09:52:04;;;;;;;;;;;;;;;18.87;85.38;-18534.72;5017680;28;19924;-81
2023/05/04 09:54:40;;;;;;;;;;;;;;;18.91;82.49;-18535.81;5004718;28;19928;-81
2023/05/04 09:57:14;;;;;;;;;;;;;;;19.08;85.45;-18540.44;5005182;28;19921;-81
2023/05/04 09:59:40;;;;;;;;;;;;;;;19.01;87.84;-18538.53;5004038;28;19913;-81
2023/05/04 10:02:06;;;;;;;;;;;;;;;19.16;89.11;-18542.63;5006025;28;19917;-82
2023/05/04 10:04:35;;;;;;;;;;;;;;;19.23;83.76;-18544.25;5018190;28;19921;-80
2023/05/04 10:07:04;;;;;;;;;;;;;;;19.51;81.87;-18551.88;5006289;28;19921;-80
2023/05/04 10:09:30;;;;;;;;;;;;;;;19.53;84.32;-18552.28;5007678;28;19925;-81
2023/05/04 10:11:59;;;;;;;;;;;;;;;19.77;82.47;-18558.84;5006896;28;20365;-80
2023/05/04 10:14:25;;;;;;;;;;;;;;;19.69;78.45;-18556.53;5009221;28;19924;-81
2023/05/04 10:16:59;;;;;;;;;;;;;;;19.56;82.02;-18553.09;5009440;28;19917;-80
2023/05/04 10:19:43;;;;;;;;;;;;;;;19.42;75.79;-18549.28;5007936;28;19919;-80
2023/05/04 10:22:17;;;;;;;;;;;;;;;19.46;88.56;-18550.53;5004026;28;20004;-80
2023/05/04 10:25:01;;;;;;;;;;;;;;;19.67;77.67;-18556.09;5007996;28;19964;-80
2023/05/04 10:27:44;;;;;;;;;;;;;;;19.44;79.06;-18549.97;5009352;28;19974;-80
2023/05/04 10:30:11;;;;;;;;;;;;;;;19.58;89.09;-18553.66;5008601;28;20408;-80
2023/05/04 10:32:38;;;;;;;;;;;;;;;19.84;82.72;-18560.59;5009546;28;19918;-80
2023/05/04 10:35:07;;;;;;;;;;;;;;;19.93;76.90;-18562.91;5008701;28;20083;-80
2023/05/04 10:37:32;;;;;;;;;;;;;;;19.89;77.26;-18561.81;5009274;28;19948;-80
2023/05/04 10:39:58;;;;;;;;;;;;;;;19.99;80.93;-18564.56;5001458;28;20365;-81
2023/05/04 10:42:23;;;;;;;;;;;;;;;20.04;80.64;-18565.91;5008455;28;19918;-80
2023/05/04 10:44:55;;;;;;;;;;;;;;;20.21;68.54;-18570.53;5004548;28;19921;-80
2023/05/04 10:47:28;;;;;;;;;;;;;;;20.04;59.24;-18566.03;5007266;28;19976;-80
2023/05/04 10:50:01;;;;;;;;;;;;;;;20.09;63.26;-18567.28;5022784;28;20303;-80
2023/05/04 10:52:26;;;;;;;;;;;;;;;20.15;61.78;-18568.78;5008488;28;19940;-80
2023/05/04 10:54:58;;;;;;;;;;;;;;;20.23;55.78;-18570.94;5008362;28;20384;-80
2023/05/04 10:57:26;;;;;;;;;;;;;;;20.26;64.36;-18571.75;5007534;28;19917;-80
2023/05/04 10:59:58;;;;;;;;;;;;;;;20.38;60.61;-18575.03;5003375;28;19921;-81
2023/05/04 11:02:24;;;;;;;;;;;;;;;20.39;60.21;-18575.16;5007269;28;19923;-82
2023/05/04 11:05:03;;;;;;;;;;;;;;;20.32;67.41;-18573.41;5005541;28;19921;-81
2023/05/04 11:07:32;;;;;;;;;;;;;;;20.50;69.51;-18578.16;5008030;28;20372;-83
2023/05/04 11:09:58;;;;;;;;;;;;;;;20.66;67.04;-18582.38;5001237;28;19920;-82
2023/05/04 11:12:23;;;;;;;;;;;;;;;20.63;70.73;-18581.56;5004308;28;20004;-81
2023/05/04 11:14:48;;;;;;;;;;;;;;;20.70;65.17;-18583.47;5000176;28;19925;-82
2023/05/04 11:17:14;;;;;;;;;;;;;;;20.83;66.57;-18586.88;5010877;28;19917;-81
2023/05/04 11:19:48;;;;;;;;;;;;;;;20.94;67.17;-18590.00;5002987;28;19917;-81
2023/05/04 11:22:13;;;;;;;;;;;;;;;20.93;62.60;-18589.72;5006149;28;19924;-82
2023/05/04 11:24:43;;;;;;;;;;;;;;;20.77;63.68;-18585.25;5002891;28;21198;-81
2023/05/04 11:27:20;;;;;;;;;;;;;;;20.93;51.60;-18589.59;5007565;28;19967;-82
2023/05/04 11:30:03;;;;;;;;;;;;;;;21.09;60.02;-18593.94;5001506;28;19925;-82
2023/05/04 11:32:50;;;;;;;;;;;;;;;21.36;57.16;-18601.16;5019281;28;19929;-82
2023/05/04 11:35:16;;;;;;;;;;;;;;;21.29;60.18;-18599.25;4997050;28;19976;-81
2023/05/04 11:37:43;;;;;;;;;;;;;;;21.54;60.49;-18605.91;5001517;28;19921;-83
2023/05/04 11:40:12;;;;;;;;;;;;;;;21.52;54.88;-18605.38;5000272;28;19924;-82
2023/05/04 11:42:41;;;;;;;;;;;;;;;21.56;50.31;-18606.31;5006149;28;19925;-81
2023/05/04 11:45:30;;;;;;;;;;;;;;;21.50;51.93;-18604.81;5001130;28;19923;-82
2023/05/04 11:47:55;;;;;;;;;;;;;;;21.45;53.67;-18603.31;4995697;28;19929;-82
2023/05/04 11:50:24;;;;;;;;;;;;;;;21.49;50.99;-18604.41;4995260;28;19996;-82
2023/05/04 11:52:49;;;;;;;;;;;;;;;21.53;56.34;-18605.50;5005117;28;19948;-81
2023/05/04 11:55:24;;;;;;;;;;;;;;;21.67;56.19;-18609.31;5001203;28;19921;-81
2023/05/04 11:57:59;;;;;;;;;;;;;;;21.81;57.33;-18612.97;5003216;28;19922;-82
2023/05/04 12:00:36;;;;;;;;;;;;;;;21.93;52.88;-18616.25;5001864;28;19921;-81
2023/05/04 12:03:01;;;;;;;;;;;;;;;21.91;47.38;-18615.69;4997416;28;19921;-81
2023/05/04 12:05:27;;;;;;;;;;;;;;;21.97;47.27;-18617.31;5002510;28;19924;-82
2023/05/04 12:07:52;;;;;;;;;;;;;;;21.93;49.90;-18616.25;4996835;28;20304;-82
2023/05/04 12:10:27;;;;;;;;;;;;;;;21.97;50.25;-18617.19;5004825;28;19936;-82
2023/05/04 12:12:52;;;;;;;;;;;;;;;22.25;48.55;-18624.66;4998277;28;20067;-82
2023/05/04 12:15:28;;;;;;;;;;;;;;;22.32;45.68;-18626.44;5005718;28;20020;-82
2023/05/04 12:17:53;;;;;;;;;;;;;;;22.03;47.36;-18618.81;4997538;28;19948;-82
2023/05/04 12:20:27;;;;;;;;;;;;;;;22.19;43.14;-18623.16;4998437;28;20016;-82
2023/05/04 12:22:52;;;;;;;;;;;;;;;22.11;44.46;-18621.00;5000175;28;19917;-82
2023/05/04 12:25:18;;;;;;;;;;;;;;;22.16;46.00;-18622.34;5017537;28;19921;-82
2023/05/04 12:27:44;;;;;;;;;;;;;;;22.29;43.00;-18625.75;5000995;28;20388;-82
2023/05/04 12:30:09;;;;;;;;;;;;;;;22.31;45.19;-18626.28;5004200;28;19927;-82
2023/05/04 12:32:35;;;;;;;;;;;;;;;22.40;45.23;-18628.59;5003423;28;19925;-82